createdAt,value
2022-11-19T00:00:45.998Z,101116.00
2022-11-19T00:03:17.541Z,101111.78
2022-11-19T00:05:46.391Z,101120.25
2022-11-19T00:08:16.583Z,101124.47
2022-11-19T00:10:43.524Z,101129.44
2022-11-19T00:13:09.970Z,101120.31
2022-11-19T00:15:37.336Z,101124.00
2022-11-19T00:18:04.793Z,101124.13
2022-11-19T00:20:32.156Z,101133.25
2022-11-19T00:22:58.648Z,101130.16
2022-11-19T00:25:27.605Z,101130.38
2022-11-19T00:27:55.850Z,101126.19
2022-11-19T00:30:46.264Z,101131.50
2022-11-19T00:33:08.507Z,101124.13
2022-11-19T00:35:34.785Z,101126.41
2022-11-19T00:38:01.075Z,101129.03
2022-11-19T00:40:27.353Z,101129.03
2022-11-19T00:43:12.247Z,101128.81
2022-11-19T00:45:38.554Z,101128.56
2022-11-19T00:48:05.131Z,101122.16
2022-11-19T00:50:31.408Z,101130.88
2022-11-19T00:52:57.795Z,101130.69
2022-11-19T00:55:24.133Z,101144.66
2022-11-19T00:57:50.460Z,101140.09
2022-11-19T01:00:17.042Z,101143.50
2022-11-19T01:02:43.319Z,101148.69
2022-11-19T01:05:09.629Z,101151.41
2022-11-19T01:07:35.984Z,101151.84
2022-11-19T01:10:02.335Z,101160.19
2022-11-19T01:12:28.701Z,101155.97
2022-11-19T01:14:54.986Z,101159.81
2022-11-19T01:17:21.286Z,101147.09
2022-11-19T01:19:47.646Z,101158.56
2022-11-19T01:22:13.926Z,101149.88
2022-11-19T01:24:40.214Z,101154.53
2022-11-19T01:27:06.490Z,101148.56
2022-11-19T01:29:32.800Z,101155.69
2022-11-19T01:31:59.165Z,101157.69
2022-11-19T01:34:25.495Z,101163.75
2022-11-19T01:36:51.781Z,101166.59
2022-11-19T01:39:19.624Z,101170.44
2022-11-19T01:41:46.169Z,101169.38
2022-11-19T01:44:59.174Z,101169.50
2022-11-19T01:47:25.553Z,101171.53
2022-11-19T01:49:51.846Z,101175.31
2022-11-19T01:52:18.325Z,101177.94
2022-11-19T01:54:48.613Z,101168.03
2022-11-19T01:57:17.938Z,101175.53
2022-11-19T01:59:49.357Z,101173.41
2022-11-19T02:02:17.184Z,101179.47
2022-11-19T02:04:43.650Z,101175.66
2022-11-19T02:07:12.343Z,101178.66
2022-11-19T02:09:40.043Z,101184.84
2022-11-19T02:12:41.810Z,101175.66
2022-11-19T02:15:40.622Z,101176.47
2022-11-19T02:18:28.803Z,101189.50
2022-11-19T02:21:13.704Z,101187.66
2022-11-19T02:23:58.545Z,101191.75
2022-11-19T02:26:54.882Z,101199.13
2022-11-19T02:29:30.134Z,101202.63
2022-11-19T02:32:14.947Z,101207.38
2022-11-19T02:34:53.288Z,101197.25
2022-11-19T02:37:29.311Z,101204.31
2022-11-19T02:40:07.047Z,101213.78
2022-11-19T02:42:52.172Z,101201.94
2022-11-19T02:45:24.199Z,101199.22
2022-11-19T02:47:58.740Z,101199.22
2022-11-19T02:50:31.688Z,101200.09
2022-11-19T02:52:58.482Z,101203.38
2022-11-19T02:55:25.545Z,101199.09
2022-11-19T02:58:06.843Z,101199.09
2022-11-19T03:01:03.849Z,101198.47
2022-11-19T03:03:49.798Z,101204.84
2022-11-19T03:06:20.234Z,101200.03
2022-11-19T03:08:46.893Z,101206.78
2022-11-19T03:11:24.609Z,101209.59
2022-11-19T03:14:37.955Z,101199.75
2022-11-19T03:17:21.265Z,101201.53
2022-11-19T03:19:58.361Z,101201.94
2022-11-19T03:22:42.101Z,101202.28
2022-11-19T03:25:16.188Z,101208.44
2022-11-19T03:27:47.241Z,101205.28
2022-11-19T03:30:16.075Z,101208.91
2022-11-19T03:32:53.514Z,101203.75
2022-11-19T03:35:25.446Z,101209.56
2022-11-19T03:37:55.858Z,101202.59
2022-11-19T03:40:24.563Z,101208.25
2022-11-19T03:42:54.562Z,101207.22
2022-11-19T03:45:30.279Z,101204.03
2022-11-19T03:47:57.376Z,101204.03
2022-11-19T03:50:30.874Z,101206.69
2022-11-19T03:53:03.875Z,101217.13
2022-11-19T03:55:38.965Z,101208.97
2022-11-19T03:58:06.876Z,101206.47
2022-11-19T04:00:33.601Z,101211.88
2022-11-19T04:03:00.851Z,101211.31
2022-11-19T04:05:27.134Z,101216.63
2022-11-19T04:07:53.508Z,101216.00
2022-11-19T04:10:19.841Z,101217.66
2022-11-19T04:12:46.266Z,101214.63
2022-11-19T04:15:14.100Z,101207.84
2022-11-19T04:17:40.772Z,101207.03
2022-11-19T04:20:08.718Z,101224.06
2022-11-19T04:22:35.108Z,101218.91
2022-11-19T04:25:01.409Z,101218.34
2022-11-19T04:27:27.729Z,101221.38
2022-11-19T04:29:54.076Z,101224.66
2022-11-19T04:32:20.383Z,101225.44
2022-11-19T04:34:46.723Z,101229.28
2022-11-19T04:37:13.059Z,101226.47
2022-11-19T04:39:39.369Z,101215.03
2022-11-19T04:42:05.724Z,101212.31
2022-11-19T04:44:32.875Z,101208.59
2022-11-19T04:46:59.672Z,101208.91
2022-11-19T04:49:26.080Z,101205.72
2022-11-19T04:51:52.732Z,101203.66
2022-11-19T04:54:19.012Z,101197.78
2022-11-19T04:56:45.393Z,101199.91
2022-11-19T04:59:11.721Z,101213.22
2022-11-19T05:01:38.091Z,101210.81
2022-11-19T05:04:04.673Z,101203.66
2022-11-19T05:06:31.019Z,101213.03
2022-11-19T05:08:57.310Z,101204.78
2022-11-19T05:11:23.610Z,101204.34
2022-11-19T05:13:49.927Z,101208.16
2022-11-19T05:16:16.298Z,101209.16
2022-11-19T05:18:42.638Z,101217.84
2022-11-19T05:21:09.222Z,101225.94
2022-11-19T05:23:35.513Z,101220.56
2022-11-19T05:26:01.806Z,101215.16
2022-11-19T05:28:38.076Z,101220.56
2022-11-19T05:31:05.336Z,101215.94
2022-11-19T05:33:34.270Z,101225.84
2022-11-19T05:36:01.330Z,101230.63
2022-11-19T05:38:27.670Z,101223.81
2022-11-19T05:40:54.163Z,101219.88
2022-11-19T05:43:20.536Z,101223.03
2022-11-19T05:45:46.838Z,101227.38
2022-11-19T05:48:13.159Z,101218.63
2022-11-19T05:50:42.371Z,101227.16
2022-11-19T05:53:09.362Z,101220.16
2022-11-19T05:55:35.666Z,101218.66
2022-11-19T05:58:01.993Z,101222.09
2022-11-19T06:00:28.316Z,101223.56
2022-11-19T06:02:54.648Z,101219.53
2022-11-19T06:05:21.075Z,101226.25
2022-11-19T06:07:47.368Z,101229.00
2022-11-19T06:10:13.658Z,101221.88
2022-11-19T06:12:45.542Z,101228.13
2022-11-19T06:15:12.784Z,101224.94
2022-11-19T06:17:39.106Z,101234.50
2022-11-19T06:20:08.597Z,101223.38
2022-11-19T06:22:35.411Z,101230.44
2022-11-19T06:25:02.022Z,101238.75
2022-11-19T06:27:28.353Z,101242.25
2022-11-19T06:29:56.361Z,101224.41
2022-11-19T06:32:23.425Z,101222.81
2022-11-19T06:34:49.774Z,101226.31
2022-11-19T06:37:16.075Z,101223.59
2022-11-19T06:39:42.768Z,101227.53
2022-11-19T06:42:28.896Z,101219.97
2022-11-19T06:44:55.178Z,101226.44
2022-11-19T06:47:21.519Z,101218.16
2022-11-19T06:49:47.845Z,101227.00
2022-11-19T06:52:14.232Z,101219.66
2022-11-19T06:54:43.334Z,101224.75
2022-11-19T06:57:10.019Z,101222.13
2022-11-19T06:59:38.711Z,101222.28
2022-11-19T07:02:05.548Z,101212.28
2022-11-19T07:04:31.950Z,101217.72
2022-11-19T07:06:58.436Z,101214.56
2022-11-19T07:09:24.751Z,101213.06
2022-11-19T07:11:51.039Z,101214.97
2022-11-19T07:14:17.340Z,101211.03
2022-11-19T07:16:43.824Z,101210.22
2022-11-19T07:19:10.165Z,101216.44
2022-11-19T07:21:36.805Z,101216.41
2022-11-19T07:24:07.619Z,101216.59
2022-11-19T07:26:34.910Z,101217.41
2022-11-19T07:29:04.842Z,101215.44
2022-11-19T07:31:31.657Z,101219.00
2022-11-19T07:33:57.992Z,101219.94
2022-11-19T07:36:24.870Z,101210.97
2022-11-19T07:38:52.249Z,101209.78
2022-11-19T07:41:38.514Z,101213.63
2022-11-19T07:44:04.992Z,101209.59
2022-11-19T07:46:31.317Z,101201.34
2022-11-19T07:48:58.627Z,101204.16
2022-11-19T07:51:25.416Z,101211.06
2022-11-19T07:53:52.341Z,101201.56
2022-11-19T07:56:19.706Z,101200.00
2022-11-19T07:58:46.166Z,101203.69
2022-11-19T08:01:17.658Z,101199.41
2022-11-19T08:03:53.252Z,101204.06
2022-11-19T08:06:24.319Z,101206.69
2022-11-19T08:08:50.649Z,101209.78
2022-11-19T08:11:18.153Z,101205.75
2022-11-19T08:13:44.510Z,101201.75
2022-11-19T08:16:13.393Z,101207.63
2022-11-19T08:18:39.896Z,101201.75
2022-11-19T08:21:11.593Z,101195.41
2022-11-19T08:23:39.099Z,101200.59
2022-11-19T08:26:09.001Z,101198.72
2022-11-19T08:28:35.334Z,101202.56
2022-11-19T08:31:09.309Z,101201.22
2022-11-19T08:33:36.124Z,101205.34
2022-11-19T08:36:02.926Z,101204.78
2022-11-19T08:38:32.275Z,101201.81
2022-11-19T08:41:19.471Z,101204.25
2022-11-19T08:43:45.761Z,101205.59
2022-11-19T08:46:12.155Z,101212.31
2022-11-19T08:48:38.508Z,101218.59
2022-11-19T08:51:06.619Z,101206.28
2022-11-19T08:53:33.647Z,101200.41
2022-11-19T08:56:00.055Z,101197.81
2022-11-19T08:58:26.428Z,101198.78
2022-11-19T09:00:53.112Z,101198.78
2022-11-19T09:03:19.481Z,101199.84
2022-11-19T09:05:45.774Z,101198.75
2022-11-19T09:08:12.074Z,101202.00
2022-11-19T09:10:38.554Z,101198.66
2022-11-19T09:13:05.407Z,101199.25
2022-11-19T09:15:31.923Z,101197.66
2022-11-19T09:17:58.239Z,101197.75
2022-11-19T09:20:24.639Z,101198.81
2022-11-19T09:22:51.041Z,101202.22
2022-11-19T09:25:17.455Z,101196.91
2022-11-19T09:27:43.765Z,101194.13
2022-11-19T09:30:10.260Z,101197.22
2022-11-19T09:32:36.633Z,101193.94
2022-11-19T09:35:02.985Z,101197.00
2022-11-19T09:37:31.921Z,101193.50
2022-11-19T09:39:58.258Z,101199.38
2022-11-19T09:42:49.353Z,101189.66
2022-11-19T09:45:46.594Z,101197.69
2022-11-19T09:48:39.810Z,101199.69
2022-11-19T09:51:16.586Z,101193.91
2022-11-19T09:53:50.149Z,101192.75
2022-11-19T09:56:29.735Z,101188.78
2022-11-19T09:58:57.929Z,101193.53
2022-11-19T10:01:25.576Z,101196.03
2022-11-19T10:03:53.983Z,101195.44
2022-11-19T10:06:45.400Z,101193.69
2022-11-19T10:09:51.826Z,101190.41
2022-11-19T10:12:56.053Z,101192.19
2022-11-19T10:15:38.040Z,101194.91
2022-11-19T10:18:21.918Z,101188.59
2022-11-19T10:20:53.661Z,101187.00
2022-11-19T10:23:42.822Z,101187.31
2022-11-19T10:26:17.976Z,101185.84
2022-11-19T10:28:58.027Z,101190.28
2022-11-19T10:31:29.923Z,101175.25
2022-11-19T10:34:08.897Z,101175.66
2022-11-19T10:36:43.134Z,101172.38
2022-11-19T10:39:35.869Z,101169.22
2022-11-19T10:42:25.641Z,101164.81
2022-11-19T10:45:07.053Z,101165.22
2022-11-19T10:47:57.905Z,101161.97
2022-11-19T10:50:25.444Z,101161.22
2022-11-19T10:52:55.608Z,101158.66
2022-11-19T10:55:39.549Z,101157.19
2022-11-19T10:58:12.406Z,101148.09
2022-11-19T11:00:40.671Z,101145.66
2022-11-19T11:03:16.638Z,101145.13
2022-11-19T11:05:58.199Z,101134.03
2022-11-19T11:08:24.741Z,101141.69
2022-11-19T11:10:52.022Z,101139.19
2022-11-19T11:13:58.377Z,101131.66
2022-11-19T11:16:38.215Z,101122.16
2022-11-19T11:19:13.638Z,101120.66
2022-11-19T11:21:40.362Z,101114.59
2022-11-19T11:24:08.770Z,101115.78
2022-11-19T11:26:38.681Z,101113.28
2022-11-19T11:29:14.354Z,101105.91
2022-11-19T11:31:47.836Z,101106.94
2022-11-19T11:34:31.198Z,101103.41
2022-11-19T11:37:01.860Z,101094.81
2022-11-19T11:39:36.353Z,101102.66
2022-11-19T11:42:06.584Z,101092.69
2022-11-19T11:44:36.978Z,101086.03
2022-11-19T11:47:16.727Z,101084.41
2022-11-19T11:49:55.952Z,101090.75
2022-11-19T11:52:37.340Z,101083.28
2022-11-19T11:55:15.294Z,101073.16
2022-11-19T11:58:00.138Z,101069.38
2022-11-19T12:00:35.373Z,101071.94
2022-11-19T12:03:18.949Z,101065.09
2022-11-19T12:05:57.455Z,101065.88
2022-11-19T12:08:51.893Z,101062.72
2022-11-19T12:11:53.492Z,101062.06
2022-11-19T12:14:52.002Z,101067.44
2022-11-19T12:17:46.168Z,101065.72
2022-11-19T12:20:37.082Z,101056.09
2022-11-19T12:23:15.338Z,101052.88
2022-11-19T12:26:02.769Z,101055.28
2022-11-19T12:29:12.043Z,101055.13
2022-11-19T12:31:46.757Z,101059.56
2022-11-19T12:34:16.035Z,101051.16
2022-11-19T12:36:57.358Z,101053.13
2022-11-19T12:39:39.090Z,101052.44
2022-11-19T12:42:50.431Z,101053.50
2022-11-19T12:45:36.113Z,101044.78
2022-11-19T12:48:21.270Z,101042.84
2022-11-19T12:51:32.804Z,101044.09
2022-11-19T12:54:28.904Z,101038.16
2022-11-19T12:57:28.869Z,101034.78
2022-11-19T13:00:01.195Z,101032.44
2022-11-19T13:02:52.001Z,101028.09
2022-11-19T13:05:21.772Z,101027.28
2022-11-19T13:08:01.734Z,101027.66
2022-11-19T13:10:42.096Z,101031.03
2022-11-19T13:13:13.990Z,101031.84
2022-11-19T13:15:46.922Z,101027.69
2022-11-19T13:18:17.580Z,101027.75
2022-11-19T13:20:51.838Z,101027.06
2022-11-19T13:23:27.630Z,101027.91
2022-11-19T13:26:09.328Z,101019.31
2022-11-19T13:28:41.990Z,101023.31
2022-11-19T13:31:21.711Z,101020.94
2022-11-19T13:33:55.150Z,101010.75
2022-11-19T13:36:41.709Z,101007.31
2022-11-19T13:39:18.977Z,101012.56
2022-11-19T13:42:09.011Z,101003.13
2022-11-19T13:44:41.163Z,101008.00
2022-11-19T13:47:37.354Z,101013.81
2022-11-19T13:50:13.427Z,101001.59
2022-11-19T13:52:44.195Z,101019.81
2022-11-19T13:55:43.128Z,101017.25
2022-11-19T13:58:22.714Z,101025.72
2022-11-19T14:01:08.029Z,101015.44
2022-11-19T14:03:49.848Z,101013.63
2022-11-19T14:06:36.233Z,101014.47
2022-11-19T14:09:19.503Z,101015.31
2022-11-19T14:12:25.560Z,101011.94
2022-11-19T14:15:38.314Z,101008.34
2022-11-19T14:18:43.458Z,101008.94
2022-11-19T14:21:43.806Z,101011.34
2022-11-19T14:24:43.796Z,101011.56
2022-11-19T14:27:19.425Z,101005.56
2022-11-19T14:29:45.682Z,101016.66
2022-11-19T14:32:11.913Z,101010.66
2022-11-19T14:34:41.802Z,101008.81
2022-11-19T14:37:19.113Z,101012.38
2022-11-19T14:39:52.707Z,101009.63
2022-11-19T14:42:22.119Z,101014.72
2022-11-19T14:45:00.639Z,101019.84
2022-11-19T14:47:32.981Z,101021.56
2022-11-19T14:50:02.296Z,101018.22
2022-11-19T14:52:36.070Z,101014.75
2022-11-19T14:55:23.602Z,101015.63
2022-11-19T14:58:18.037Z,101013.22
2022-11-19T15:00:44.446Z,101007.75
2022-11-19T15:03:21.724Z,101000.00
2022-11-19T15:05:48.943Z,101003.34
2022-11-19T15:08:18.217Z,100997.22
2022-11-19T15:11:08.993Z,100991.13
2022-11-19T15:13:40.610Z,100994.53
2022-11-19T15:16:12.098Z,100981.78
2022-11-19T15:18:41.379Z,100985.16
2022-11-19T15:21:13.633Z,100982.41
2022-11-19T15:23:49.230Z,100977.13
2022-11-19T15:26:30.351Z,100979.66
2022-11-19T15:29:18.172Z,100977.81
2022-11-19T15:32:25.585Z,100971.81
2022-11-19T15:35:12.050Z,100977.69
2022-11-19T15:37:50.818Z,100968.34
2022-11-19T15:40:22.403Z,100974.50
2022-11-19T15:42:59.195Z,100963.13
2022-11-19T15:45:27.034Z,100962.03
2022-11-19T15:48:09.836Z,100969.72
2022-11-19T15:50:36.864Z,100964.50
2022-11-19T15:53:21.480Z,100961.84
2022-11-19T15:55:49.993Z,100966.84
2022-11-19T15:58:20.446Z,100964.13
2022-11-19T16:00:49.677Z,100959.00
2022-11-19T16:03:16.704Z,100964.03
2022-11-19T16:05:50.163Z,100964.81
2022-11-19T16:08:17.051Z,100958.75
2022-11-19T16:10:46.622Z,100958.81
2022-11-19T16:13:43.277Z,100951.16
2022-11-19T16:16:54.820Z,100952.81
2022-11-19T16:19:22.057Z,100954.66
2022-11-19T16:21:57.166Z,100952.06
2022-11-19T16:24:44.645Z,100951.09
2022-11-19T16:27:18.304Z,100942.41
2022-11-19T16:29:46.334Z,100940.63
2022-11-19T16:32:19.611Z,100930.38
2022-11-19T16:34:46.617Z,100935.56
2022-11-19T16:37:15.439Z,100933.06
2022-11-19T16:39:48.394Z,100928.53
2022-11-19T16:42:19.127Z,100929.31
2022-11-19T16:44:48.443Z,100937.22
2022-11-19T16:47:37.282Z,100932.94
2022-11-19T16:50:34.569Z,100928.56
2022-11-19T16:53:02.092Z,100937.13
2022-11-19T16:55:31.696Z,100938.06
2022-11-19T16:58:01.630Z,100932.94
2022-11-19T17:00:34.442Z,100929.41
2022-11-19T17:03:15.424Z,100939.78
2022-11-19T17:05:46.251Z,100928.59
2022-11-19T17:08:25.094Z,100932.94
2022-11-19T17:11:34.684Z,100930.34
2022-11-19T17:14:23.133Z,100925.88
2022-11-19T17:16:52.300Z,100928.53
2022-11-19T17:19:33.081Z,100933.66
2022-11-19T17:22:17.532Z,100925.28
2022-11-19T17:24:45.786Z,100925.09
2022-11-19T17:27:28.745Z,100922.44
2022-11-19T17:30:02.560Z,100928.44
2022-11-19T17:32:45.156Z,100927.78
2022-11-19T17:35:38.514Z,100930.34
2022-11-19T17:38:13.105Z,100925.09
2022-11-19T17:40:50.978Z,100920.75
2022-11-19T17:43:57.100Z,100922.59
2022-11-19T17:46:25.708Z,100922.50
2022-11-19T17:48:53.015Z,100925.16
2022-11-19T17:51:25.132Z,100926.81
2022-11-19T17:53:52.766Z,100932.94
2022-11-19T17:56:29.848Z,100928.66
2022-11-19T17:58:56.588Z,100926.06
2022-11-19T18:01:23.327Z,100929.50
2022-11-19T18:03:49.722Z,100918.13
2022-11-19T18:06:17.575Z,100926.75
2022-11-19T18:08:44.358Z,100931.94
2022-11-19T18:11:19.456Z,100932.66
2022-11-19T18:13:46.744Z,100924.03
2022-11-19T18:16:41.713Z,100931.00
2022-11-19T18:19:27.050Z,100928.66
2022-11-19T18:21:53.414Z,100921.91
2022-11-19T18:24:19.735Z,100927.06
2022-11-19T18:26:46.118Z,100925.97
2022-11-19T18:29:12.764Z,100930.41
2022-11-19T18:31:44.086Z,100938.31
2022-11-19T18:34:18.079Z,100930.34
2022-11-19T18:36:44.446Z,100933.66
2022-11-19T18:39:11.074Z,100931.09
2022-11-19T18:41:37.417Z,100923.38
2022-11-19T18:44:22.481Z,100928.59
2022-11-19T18:46:48.781Z,100917.53
2022-11-19T18:49:15.202Z,100930.31
2022-11-19T18:51:43.654Z,100925.00
2022-11-19T18:54:11.906Z,100920.88
2022-11-19T18:56:38.362Z,100923.44
2022-11-19T18:59:05.203Z,100921.84
2022-11-19T19:01:32.252Z,100929.44
2022-11-19T19:03:58.607Z,100924.34
2022-11-19T19:06:25.458Z,100930.28
2022-11-19T19:08:51.912Z,100932.00
2022-11-19T19:11:36.924Z,100932.78
2022-11-19T19:14:04.031Z,100923.38
2022-11-19T19:16:30.701Z,100920.88
2022-11-19T19:18:57.053Z,100924.16
2022-11-19T19:21:23.403Z,100918.25
2022-11-19T19:23:50.284Z,100919.94
2022-11-19T19:26:18.359Z,100914.06
2022-11-19T19:28:49.488Z,100915.81
2022-11-19T19:31:17.945Z,100910.78
2022-11-19T19:33:46.071Z,100910.63
2022-11-19T19:36:13.159Z,100908.03
2022-11-19T19:38:42.404Z,100908.09
2022-11-19T19:41:15.015Z,100914.81
2022-11-19T19:43:41.307Z,100914.75
2022-11-19T19:46:16.163Z,100913.09
2022-11-19T19:48:47.565Z,100917.63
2022-11-19T19:51:15.986Z,100909.06
2022-11-19T19:53:42.820Z,100919.28
2022-11-19T19:56:35.577Z,100919.28
2022-11-19T19:59:01.897Z,100927.00
2022-11-19T20:01:31.568Z,100927.78
2022-11-19T20:04:16.463Z,100916.78
2022-11-19T20:06:47.781Z,100922.91
2022-11-19T20:09:14.428Z,100923.59
2022-11-19T20:11:40.724Z,100924.22
2022-11-19T20:14:07.194Z,100920.88
2022-11-19T20:16:34.087Z,100921.47
2022-11-19T20:19:01.091Z,100919.16
2022-11-19T20:21:33.726Z,100915.75
2022-11-19T20:24:00.245Z,100924.13
2022-11-19T20:26:29.065Z,100915.47
2022-11-19T20:29:04.271Z,100920.63
2022-11-19T20:31:31.424Z,100919.88
2022-11-19T20:33:59.861Z,100922.56
2022-11-19T20:36:28.064Z,100912.38
2022-11-19T20:38:54.876Z,100906.25
2022-11-19T20:41:40.449Z,100906.31
2022-11-19T20:44:21.704Z,100903.81
2022-11-19T20:46:55.418Z,100893.53
2022-11-19T20:49:24.919Z,100895.19
2022-11-19T20:51:52.568Z,100899.25
2022-11-19T20:54:19.403Z,100896.78
2022-11-19T20:56:45.814Z,100892.22
2022-11-19T20:59:12.557Z,100897.38
2022-11-19T21:01:39.018Z,100893.91
2022-11-19T21:04:05.895Z,100885.50
2022-11-19T21:06:32.459Z,100889.78
2022-11-19T21:08:58.740Z,100882.75
2022-11-19T21:11:25.358Z,100889.53
2022-11-19T21:13:51.817Z,100881.84
2022-11-19T21:16:20.809Z,100878.34
2022-11-19T21:18:47.759Z,100870.78
2022-11-19T21:21:16.246Z,100876.03
2022-11-19T21:23:43.371Z,100869.25
2022-11-19T21:26:23.819Z,100870.09
2022-11-19T21:28:56.320Z,100864.19
2022-11-19T21:31:42.220Z,100861.66
2022-11-19T21:34:13.740Z,100863.44
2022-11-19T21:36:41.791Z,100858.31
2022-11-19T21:39:09.002Z,100862.47
2022-11-19T21:41:35.580Z,100854.75
2022-11-19T21:44:03.268Z,100841.88
2022-11-19T21:46:29.641Z,100847.00
2022-11-19T21:48:56.003Z,100847.84
2022-11-19T21:51:24.857Z,100840.09
2022-11-19T21:53:55.571Z,100840.81
2022-11-19T21:56:22.250Z,100838.19
2022-11-19T21:58:48.515Z,100836.41
2022-11-19T22:01:14.994Z,100833.84
2022-11-19T22:03:41.401Z,100835.44
2022-11-19T22:06:10.012Z,100827.53
2022-11-19T22:08:38.263Z,100829.38
2022-11-19T22:11:23.676Z,100825.28
2022-11-19T22:13:50.050Z,100826.94
2022-11-19T22:16:16.514Z,100822.53
2022-11-19T22:18:42.828Z,100825.09
2022-11-19T22:21:10.257Z,100822.47
2022-11-19T22:23:36.903Z,100822.31
2022-11-19T22:26:09.158Z,100820.56
2022-11-19T22:28:36.045Z,100809.34
2022-11-19T22:31:03.229Z,100817.22
2022-11-19T22:33:34.722Z,100817.88
2022-11-19T22:36:09.286Z,100816.16
2022-11-19T22:38:37.523Z,100817.88
2022-11-19T22:41:10.249Z,100817.88
2022-11-19T22:43:37.798Z,100820.38
2022-11-19T22:46:05.130Z,100814.34
2022-11-19T22:48:32.937Z,100812.72
2022-11-19T22:50:59.752Z,100812.00
2022-11-19T22:53:26.476Z,100817.16
2022-11-19T22:55:52.763Z,100816.19
2022-11-19T22:58:19.045Z,100825.88
2022-11-19T23:00:47.991Z,100818.16
2022-11-19T23:03:15.061Z,100818.16
2022-11-19T23:05:45.312Z,100823.44
2022-11-19T23:08:11.598Z,100816.41
2022-11-19T23:10:37.867Z,100813.84
2022-11-19T23:13:22.576Z,100813.97
2022-11-19T23:16:11.906Z,100807.72
2022-11-19T23:18:46.818Z,100810.16
2022-11-19T23:21:16.176Z,100812.00
2022-11-19T23:23:42.578Z,100809.34
2022-11-19T23:26:11.111Z,100806.88
2022-11-19T23:28:59.472Z,100812.00
2022-11-19T23:31:28.524Z,100806.72
2022-11-19T23:33:59.038Z,100799.03
2022-11-19T23:36:37.722Z,100802.53
2022-11-19T23:39:05.972Z,100792.31
2022-11-19T23:41:33.738Z,100791.59
2022-11-19T23:44:00.427Z,100794.88
2022-11-19T23:46:32.391Z,100795.41
2022-11-19T23:48:59.242Z,100797.06
2022-11-19T23:51:31.713Z,100794.44
2022-11-19T23:53:58.698Z,100796.34
2022-11-19T23:56:25.841Z,100792.47
2022-11-19T23:58:52.794Z,100797.72
